createdAt,value
2019-04-04T00:01:43.637Z,98492.28
2019-04-04T00:05:50.465Z,98489.47
2019-04-04T00:09:57.349Z,98493.13
2019-04-04T00:14:04.198Z,98498.06
2019-04-04T00:18:10.960Z,98491.30
2019-04-04T00:22:17.891Z,98472.77
2019-04-04T00:26:24.711Z,98475.64
2019-04-04T00:30:32.851Z,98484.98
2019-04-04T00:34:39.573Z,98497.48
2019-04-04T00:38:46.471Z,98490.59
2019-04-04T00:42:53.292Z,98496.82
2019-04-04T00:47:01.836Z,98482.79
2019-04-04T00:51:08.709Z,98487.38
2019-04-04T00:55:15.906Z,98478.62
2019-04-04T00:59:23.673Z,98477.77
2019-04-04T01:03:30.725Z,98470.09
2019-04-04T01:07:37.724Z,98472.95
2019-04-04T01:11:45.266Z,98476.77
2019-04-04T01:15:51.949Z,98475.52
2019-04-04T01:19:59.479Z,98468.30
2019-04-04T01:24:06.266Z,98469.80
2019-04-04T01:28:13.044Z,98464.83
2019-04-04T01:32:22.668Z,98460.20
2019-04-04T01:36:30.458Z,98456.34
2019-04-04T01:40:37.400Z,98437.38
2019-04-04T01:44:45.237Z,98399.97
2019-04-04T01:48:51.951Z,98403.62
2019-04-04T01:52:59.382Z,98388.48
2019-04-04T01:57:08.122Z,98398.42
2019-04-04T02:01:16.606Z,98391.16
2019-04-04T02:05:26.808Z,98375.31
2019-04-04T02:09:34.605Z,98384.30
2019-04-04T02:13:40.883Z,98359.64
2019-04-04T02:17:48.295Z,98363.63
2019-04-04T02:21:55.043Z,98363.97
2019-04-04T02:26:04.904Z,98382.45
2019-04-04T02:30:15.208Z,98399.11
2019-04-04T02:34:20.251Z,98398.30
2019-04-04T02:38:28.125Z,98361.73
2019-04-04T02:42:35.426Z,98373.06
2019-04-04T02:46:45.520Z,98373.22
2019-04-04T02:50:51.100Z,98357.49
2019-04-04T02:54:58.592Z,98316.09
2019-04-04T02:59:05.532Z,98337.24
2019-04-04T03:03:12.279Z,98317.32
2019-04-04T03:07:18.944Z,98334.61
2019-04-04T03:11:30.533Z,98348.66
2019-04-04T03:15:41.084Z,98337.63
2019-04-04T03:19:46.244Z,98351.58
2019-04-04T03:23:53.777Z,98337.86
2019-04-04T03:28:01.734Z,98357.72
2019-04-04T03:32:14.385Z,98335.96
2019-04-04T03:36:20.240Z,98334.07
2019-04-04T03:40:27.093Z,98341.61
2019-04-04T03:44:33.788Z,98349.38
2019-04-04T03:48:40.579Z,98350.72
2019-04-04T03:52:47.301Z,98337.56
2019-04-04T03:56:54.029Z,98331.47
2019-04-04T04:01:01.682Z,98321.59
2019-04-04T04:05:34.016Z,98293.16
2019-04-04T04:09:37.559Z,98266.55
2019-04-04T04:13:48.912Z,98234.52
2019-04-04T04:17:52.631Z,98236.86
2019-04-04T04:21:59.333Z,98237.45
2019-04-04T04:26:09.325Z,98285.08
2019-04-04T04:30:14.954Z,98295.14
2019-04-04T04:34:21.645Z,98288.61
2019-04-04T04:38:28.445Z,98270.52
2019-04-04T04:42:35.227Z,98257.34
2019-04-04T04:46:41.939Z,98241.11
2019-04-04T04:50:48.767Z,98243.38
2019-04-04T04:54:55.708Z,98256.81
2019-04-04T04:59:02.578Z,98260.48
2019-04-04T05:03:10.409Z,98270.33
2019-04-04T05:07:17.115Z,98266.98
2019-04-04T05:11:23.843Z,98274.89
2019-04-04T05:15:32.440Z,98281.09
2019-04-04T05:19:39.032Z,98260.53
2019-04-04T05:23:47.002Z,98248.27
2019-04-04T05:27:54.272Z,98247.84
2019-04-04T05:32:00.952Z,98235.56
2019-04-04T05:36:07.678Z,98246.73
2019-04-04T05:40:16.051Z,98259.82
2019-04-04T05:44:22.731Z,98258.36
2019-04-04T05:48:29.716Z,98263.93
2019-04-04T05:52:36.577Z,98266.41
2019-04-04T05:56:44.733Z,98267.79
2019-04-04T06:00:51.940Z,98252.66
2019-04-04T06:04:58.705Z,98243.06
2019-04-04T06:09:07.587Z,98259.18
2019-04-04T06:13:14.262Z,98261.36
2019-04-04T06:17:21.866Z,98262.08
2019-04-04T06:21:28.594Z,98267.00
2019-04-04T06:25:36.008Z,98260.10
2019-04-04T06:29:42.699Z,98249.94
2019-04-04T06:33:49.418Z,98237.00
2019-04-04T06:37:56.257Z,98241.61
2019-04-04T06:42:03.952Z,98236.17
2019-04-04T06:46:11.006Z,98249.86
2019-04-04T06:50:17.725Z,98240.64
2019-04-04T06:54:25.688Z,98252.88
2019-04-04T06:58:32.820Z,98268.34
2019-04-04T07:02:39.512Z,98265.85
2019-04-04T07:06:46.216Z,98253.61
2019-04-04T07:10:58.201Z,98250.00
2019-04-04T07:15:02.360Z,98252.00
2019-04-04T07:19:09.162Z,98241.16
2019-04-04T07:23:16.842Z,98229.99
2019-04-04T07:27:24.570Z,98241.98
2019-04-04T07:31:33.435Z,98240.87
2019-04-04T07:35:39.624Z,98237.00
2019-04-04T07:39:46.419Z,98252.20
2019-04-04T07:43:53.181Z,98255.58
2019-04-04T07:47:59.796Z,98260.70
2019-04-04T07:52:08.440Z,98269.47
2019-04-04T07:56:15.185Z,98264.57
2019-04-04T08:00:21.904Z,98264.80
2019-04-04T08:04:28.598Z,98268.00
2019-04-04T08:08:35.262Z,98258.27
2019-04-04T08:12:41.954Z,98278.02
2019-04-04T08:16:48.726Z,98280.80
2019-04-04T08:20:55.636Z,98275.77
2019-04-04T08:25:03.609Z,98262.41
2019-04-04T08:29:10.475Z,98263.02
2019-04-04T08:33:17.451Z,98253.28
2019-04-04T08:37:24.140Z,98252.30
2019-04-04T08:41:30.823Z,98247.27
2019-04-04T08:45:37.487Z,98237.09
2019-04-04T08:49:44.300Z,98238.00
2019-04-04T08:53:53.836Z,98225.44
2019-04-04T08:58:00.567Z,98239.27
2019-04-04T09:02:07.282Z,98238.48
2019-04-04T09:06:14.026Z,98242.17
2019-04-04T09:10:20.922Z,98249.33
2019-04-04T09:14:27.764Z,98278.11
2019-04-04T09:18:34.681Z,98271.67
2019-04-04T09:22:41.609Z,98254.02
2019-04-04T09:26:48.535Z,98252.14
2019-04-04T09:30:55.535Z,98241.88
2019-04-04T09:35:02.496Z,98252.56
2019-04-04T09:39:10.413Z,98256.23
2019-04-04T09:43:17.220Z,98239.52
2019-04-04T09:47:24.377Z,98237.01
2019-04-04T09:51:31.256Z,98223.05
2019-04-04T09:55:38.295Z,98219.22
2019-04-04T09:59:45.187Z,98216.87
2019-04-04T10:03:53.068Z,98217.96
2019-04-04T10:07:59.787Z,98204.06
2019-04-04T10:12:06.639Z,98202.09
2019-04-04T10:16:13.361Z,98207.28
2019-04-04T10:20:20.136Z,98220.86
2019-04-04T10:24:26.935Z,98222.20
2019-04-04T10:28:33.853Z,98241.05
2019-04-04T10:32:41.808Z,98256.13
2019-04-04T10:36:49.923Z,98264.89
2019-04-04T10:40:56.707Z,98256.88
2019-04-04T10:45:03.571Z,98255.09
2019-04-04T10:49:11.098Z,98262.54
2019-04-04T10:53:18.074Z,98268.72
2019-04-04T10:57:24.772Z,98273.99
2019-04-04T11:01:31.717Z,98277.87
2019-04-04T11:05:38.572Z,98287.75
2019-04-04T11:09:45.425Z,98285.59
2019-04-04T11:13:52.258Z,98272.26
2019-04-04T11:17:59.238Z,98271.61
2019-04-04T11:22:06.247Z,98273.67
2019-04-04T11:26:13.123Z,98270.37
2019-04-04T11:30:21.812Z,98264.32
2019-04-04T11:34:28.800Z,98263.37
2019-04-04T11:38:35.570Z,98275.36
2019-04-04T11:42:42.548Z,98279.11
2019-04-04T11:46:49.465Z,98265.67
2019-04-04T11:50:56.545Z,98253.80
2019-04-04T11:55:03.845Z,98258.92
2019-04-04T11:59:10.582Z,98266.81
2019-04-04T12:03:17.335Z,98274.72
2019-04-04T12:07:24.229Z,98262.23
2019-04-04T12:11:31.052Z,98277.50
2019-04-04T12:15:37.854Z,98290.95
2019-04-04T12:19:44.581Z,98295.38
2019-04-04T12:23:51.766Z,98278.87
2019-04-04T12:27:59.092Z,98280.02
2019-04-04T12:32:05.809Z,98289.92
2019-04-04T12:36:24.105Z,98299.45
2019-04-04T12:40:21.463Z,98320.38
2019-04-04T12:44:28.374Z,98335.83
2019-04-04T12:48:35.202Z,98344.31
2019-04-04T12:52:42.024Z,98328.48
2019-04-04T12:56:49.034Z,98323.97
2019-04-04T13:00:55.824Z,98325.18
2019-04-04T13:05:02.628Z,98338.03
2019-04-04T13:09:10.375Z,98352.83
2019-04-04T13:13:17.137Z,98368.73
2019-04-04T13:17:23.960Z,98370.25
2019-04-04T13:21:30.607Z,98365.62
2019-04-04T13:25:37.304Z,98362.23
2019-04-04T13:29:43.966Z,98378.61
2019-04-04T13:33:50.729Z,98381.45
2019-04-04T13:37:57.426Z,98383.91
2019-04-04T13:42:04.130Z,98395.78
2019-04-04T13:46:11.218Z,98384.34
2019-04-04T13:50:20.453Z,98372.80
2019-04-04T13:54:26.737Z,98361.75
2019-04-04T13:58:33.680Z,98392.91
2019-04-04T14:02:40.411Z,98422.23
2019-04-04T14:06:47.088Z,98416.10
2019-04-04T14:10:58.333Z,98405.75
2019-04-04T14:15:02.224Z,98419.30
2019-04-04T14:19:09.045Z,98436.64
2019-04-04T14:23:16.062Z,98469.89
2019-04-04T14:27:22.752Z,98464.98
2019-04-04T14:31:29.434Z,98459.71
2019-04-04T14:35:36.086Z,98468.20
2019-04-04T14:39:42.816Z,98446.25
2019-04-04T14:43:49.605Z,98435.27
2019-04-04T14:47:56.293Z,98426.98
2019-04-04T14:52:03.052Z,98418.66
2019-04-04T14:56:09.758Z,98417.16
2019-04-04T15:00:18.297Z,98422.89
2019-04-04T15:04:24.948Z,98445.64
2019-04-04T15:08:31.737Z,98461.28
2019-04-04T15:12:40.681Z,98480.03
2019-04-04T15:16:48.889Z,98476.41
2019-04-04T15:20:57.005Z,98475.66
2019-04-04T15:25:03.889Z,98480.03
2019-04-04T15:29:10.893Z,98479.98
2019-04-04T15:33:17.993Z,98482.25
2019-04-04T15:37:26.186Z,98480.93
2019-04-04T15:41:37.319Z,98485.63
2019-04-04T15:45:42.926Z,98509.95
2019-04-04T15:49:50.179Z,98519.61
2019-04-04T15:53:57.782Z,98520.27
2019-04-04T15:58:04.594Z,98532.66
2019-04-04T16:02:17.312Z,98540.86
2019-04-04T16:06:25.394Z,98548.69
2019-04-04T16:10:32.315Z,98544.30
2019-04-04T16:14:39.167Z,98538.27
2019-04-04T16:18:48.823Z,98535.94
2019-04-04T16:22:57.936Z,98532.59
2019-04-04T16:27:04.711Z,98539.76
2019-04-04T16:31:12.620Z,98545.75
2019-04-04T16:35:19.411Z,98552.44
2019-04-04T16:39:26.134Z,98557.44
2019-04-04T16:43:33.040Z,98560.13
2019-04-04T16:47:39.807Z,98552.16
2019-04-04T16:51:48.272Z,98549.20
2019-04-04T16:55:55.270Z,98562.11
2019-04-04T17:00:02.578Z,98568.06
2019-04-04T17:04:09.480Z,98576.33
2019-04-04T17:08:16.278Z,98569.60
2019-04-04T17:12:23.183Z,98571.13
2019-04-04T17:16:30.356Z,98579.03
2019-04-04T17:20:38.778Z,98587.33
2019-04-04T17:24:45.494Z,98582.25
2019-04-04T17:28:52.760Z,98591.35
2019-04-04T17:33:00.000Z,98593.14
2019-04-04T17:37:07.590Z,98599.02
2019-04-04T17:41:14.533Z,98599.73
2019-04-04T17:45:23.145Z,98616.03
2019-04-04T17:49:30.697Z,98629.56
2019-04-04T17:53:39.892Z,98634.58
2019-04-04T17:57:46.963Z,98626.06
2019-04-04T18:01:58.412Z,98634.42
2019-04-04T18:06:06.013Z,98648.72
2019-04-04T18:10:20.051Z,98662.03
2019-04-04T18:14:33.002Z,98662.50
2019-04-04T18:18:39.797Z,98656.59
2019-04-04T18:22:46.736Z,98659.17
2019-04-04T18:26:54.880Z,98660.78
2019-04-04T18:31:01.687Z,98664.31
2019-04-04T18:35:10.658Z,98671.48
2019-04-04T18:39:26.372Z,98672.86
2019-04-04T18:43:27.630Z,98681.06
2019-04-04T18:47:34.447Z,98690.22
2019-04-04T18:51:41.487Z,98702.78
2019-04-04T18:55:48.251Z,98695.56
2019-04-04T18:59:58.280Z,98706.84
2019-04-04T19:04:05.195Z,98713.64
2019-04-04T19:08:12.108Z,98724.84
2019-04-04T19:12:18.923Z,98715.08
2019-04-04T19:16:26.063Z,98721.08
2019-04-04T19:20:36.123Z,98724.72
2019-04-04T19:24:44.587Z,98722.81
2019-04-04T19:28:57.410Z,98722.88
2019-04-04T19:33:04.849Z,98719.78
2019-04-04T19:37:12.208Z,98730.83
2019-04-04T19:41:19.802Z,98747.33
2019-04-04T19:45:27.220Z,98751.58
2019-04-04T19:49:34.148Z,98745.25
2019-04-04T19:53:41.122Z,98736.32
2019-04-04T19:57:49.313Z,98748.57
2019-04-04T20:01:56.387Z,98772.72
2019-04-04T20:06:03.360Z,98781.33
2019-04-04T20:10:10.847Z,98778.17
2019-04-04T20:14:18.234Z,98778.50
2019-04-04T20:18:25.321Z,98790.91
2019-04-04T20:22:32.887Z,98784.80
2019-04-04T20:26:40.510Z,98790.55
2019-04-04T20:30:49.282Z,98781.25
2019-04-04T20:34:56.415Z,98786.55
2019-04-04T20:39:04.712Z,98802.30
2019-04-04T20:43:14.261Z,98807.05
2019-04-04T20:47:21.018Z,98792.59
2019-04-04T20:51:27.852Z,98807.27
2019-04-04T20:55:34.657Z,98781.03
2019-04-04T20:59:47.884Z,98779.53
2019-04-04T21:03:54.559Z,98790.47
2019-04-04T21:08:02.467Z,98791.53
2019-04-04T21:12:11.306Z,98775.58
2019-04-04T21:16:18.847Z,98784.98
2019-04-04T21:20:26.082Z,98784.94
2019-04-04T21:24:32.895Z,98789.59
2019-04-04T21:28:39.641Z,98791.14
2019-04-04T21:32:46.442Z,98799.20
2019-04-04T21:36:53.405Z,98799.34
2019-04-04T21:41:00.931Z,98795.36
2019-04-04T21:45:08.129Z,98794.27
2019-04-04T21:49:15.036Z,98791.44
2019-04-04T21:53:23.438Z,98806.95
2019-04-04T21:57:30.120Z,98813.23
2019-04-04T22:01:36.900Z,98820.94
2019-04-04T22:05:44.907Z,98826.84
2019-04-04T22:09:51.643Z,98839.48
2019-04-04T22:13:58.484Z,98843.05
2019-04-04T22:18:05.471Z,98845.17
2019-04-04T22:22:12.154Z,98847.81
2019-04-04T22:26:18.905Z,98847.08
2019-04-04T22:30:25.753Z,98841.31
2019-04-04T22:34:33.191Z,98837.17
2019-04-04T22:38:39.851Z,98839.93
2019-04-04T22:42:49.092Z,98834.55
2019-04-04T22:46:55.958Z,98830.19
2019-04-04T22:51:02.611Z,98832.02
2019-04-04T22:55:10.400Z,98828.08
2019-04-04T22:59:17.276Z,98835.08
2019-04-04T23:03:27.227Z,98842.25
2019-04-04T23:07:34.417Z,98861.17
2019-04-04T23:11:45.440Z,98858.54
2019-04-04T23:15:52.671Z,98858.13
2019-04-04T23:20:01.426Z,98859.47
2019-04-04T23:24:08.422Z,98859.34
2019-04-04T23:28:15.189Z,98870.20
2019-04-04T23:32:22.081Z,98878.27
2019-04-04T23:36:34.793Z,98889.42
2019-04-04T23:40:37.242Z,98891.42
2019-04-04T23:44:43.914Z,98901.55
2019-04-04T23:48:50.653Z,98901.66
2019-04-04T23:52:57.350Z,98905.60
2019-04-04T23:57:04.036Z,98898.20
